sensor_id;sensor_type;location;lat;lon;timestamp;P1;durP1;ratioP1;P2;durP2;ratioP2
4601;SDS011;2313;48.552;9.370;2022-07-29T00:02:24;4.67;;;4.27;;
4601;SDS011;2313;48.552;9.370;2022-07-29T00:04:49;3.53;;;3.10;;
4601;SDS011;2313;48.552;9.370;2022-07-29T00:07:15;3.60;;;3.30;;
4601;SDS011;2313;48.552;9.370;2022-07-29T00:09:41;3.53;;;3.23;;
4601;SDS011;2313;48.552;9.370;2022-07-29T00:12:06;4.90;;;3.40;;
4601;SDS011;2313;48.552;9.370;2022-07-29T00:14:32;4.87;;;3.20;;
4601;SDS011;2313;48.552;9.370;2022-07-29T00:16:58;4.03;;;3.67;;
4601;SDS011;2313;48.552;9.370;2022-07-29T00:19:23;9.33;;;3.63;;
4601;SDS011;2313;48.552;9.370;2022-07-29T00:21:49;3.03;;;2.83;;
4601;SDS011;2313;48.552;9.370;2022-07-29T00:24:14;3.70;;;3.20;;
4601;SDS011;2313;48.552;9.370;2022-07-29T00:26:40;3.63;;;3.23;;
4601;SDS011;2313;48.552;9.370;2022-07-29T00:29:05;3.20;;;3.00;;
4601;SDS011;2313;48.552;9.370;2022-07-29T00:31:31;4.27;;;3.37;;
4601;SDS011;2313;48.552;9.370;2022-07-29T00:33:57;4.73;;;3.10;;
4601;SDS011;2313;48.552;9.370;2022-07-29T00:36:23;3.27;;;3.00;;
4601;SDS011;2313;48.552;9.370;2022-07-29T00:38:49;3.50;;;3.20;;
4601;SDS011;2313;48.552;9.370;2022-07-29T00:41:15;5.73;;;2.90;;
4601;SDS011;2313;48.552;9.370;2022-07-29T00:43:42;3.60;;;2.90;;
4601;SDS011;2313;48.552;9.370;2022-07-29T00:46:08;3.73;;;2.93;;
4601;SDS011;2313;48.552;9.370;2022-07-29T00:48:34;3.50;;;3.30;;
4601;SDS011;2313;48.552;9.370;2022-07-29T00:51:00;2.87;;;2.67;;
4601;SDS011;2313;48.552;9.370;2022-07-29T00:53:27;5.07;;;3.50;;
4601;SDS011;2313;48.552;9.370;2022-07-29T00:55:54;4.67;;;3.43;;
4601;SDS011;2313;48.552;9.370;2022-07-29T00:58:20;3.60;;;3.30;;
4601;SDS011;2313;48.552;9.370;2022-07-29T01:00:46;3.60;;;3.30;;
4601;SDS011;2313;48.552;9.370;2022-07-29T01:03:12;4.60;;;3.43;;
4601;SDS011;2313;48.552;9.370;2022-07-29T01:05:38;3.87;;;3.53;;
4601;SDS011;2313;48.552;9.370;2022-07-29T01:08:06;3.23;;;3.03;;
4601;SDS011;2313;48.552;9.370;2022-07-29T01:10:32;4.20;;;3.60;;
4601;SDS011;2313;48.552;9.370;2022-07-29T01:13:02;4.03;;;3.30;;
4601;SDS011;2313;48.552;9.370;2022-07-29T01:15:29;3.40;;;3.20;;
4601;SDS011;2313;48.552;9.370;2022-07-29T01:18:07;4.40;;;3.40;;
4601;SDS011;2313;48.552;9.370;2022-07-29T01:26:33;3.47;;;3.13;;
4601;SDS011;2313;48.552;9.370;2022-07-29T01:34:25;5.83;;;3.47;;
4601;SDS011;2313;48.552;9.370;2022-07-29T01:39:40;3.87;;;3.57;;
4601;SDS011;2313;48.552;9.370;2022-07-29T01:47:37;5.83;;;4.60;;
4601;SDS011;2313;48.552;9.370;2022-07-29T01:50:12;4.63;;;4.13;;
4601;SDS011;2313;48.552;9.370;2022-07-29T01:52:47;6.70;;;4.87;;
4601;SDS011;2313;48.552;9.370;2022-07-29T01:55:19;4.80;;;4.27;;
4601;SDS011;2313;48.552;9.370;2022-07-29T01:57:47;5.60;;;4.30;;
4601;SDS011;2313;48.552;9.370;2022-07-29T02:00:14;5.83;;;3.87;;
4601;SDS011;2313;48.552;9.370;2022-07-29T02:02:41;5.17;;;4.10;;
4601;SDS011;2313;48.552;9.370;2022-07-29T02:05:10;7.00;;;3.80;;
4601;SDS011;2313;48.552;9.370;2022-07-29T02:07:39;8.17;;;3.77;;
4601;SDS011;2313;48.552;9.370;2022-07-29T02:10:07;5.47;;;4.33;;
4601;SDS011;2313;48.552;9.370;2022-07-29T02:12:34;4.50;;;4.10;;
4601;SDS011;2313;48.552;9.370;2022-07-29T02:15:02;5.60;;;3.80;;
4601;SDS011;2313;48.552;9.370;2022-07-29T02:17:33;3.93;;;3.63;;
4601;SDS011;2313;48.552;9.370;2022-07-29T02:20:05;6.33;;;4.30;;
4601;SDS011;2313;48.552;9.370;2022-07-29T02:22:33;6.60;;;3.63;;
4601;SDS011;2313;48.552;9.370;2022-07-29T02:25:01;3.27;;;3.03;;
4601;SDS011;2313;48.552;9.370;2022-07-29T02:27:28;3.70;;;3.40;;
4601;SDS011;2313;48.552;9.370;2022-07-29T02:29:54;4.13;;;3.40;;
4601;SDS011;2313;48.552;9.370;2022-07-29T02:32:22;3.27;;;2.97;;
4601;SDS011;2313;48.552;9.370;2022-07-29T02:34:49;3.77;;;3.47;;
4601;SDS011;2313;48.552;9.370;2022-07-29T02:37:16;4.47;;;3.60;;
4601;SDS011;2313;48.552;9.370;2022-07-29T02:39:43;5.57;;;3.70;;
4601;SDS011;2313;48.552;9.370;2022-07-29T02:42:12;5.13;;;3.30;;
4601;SDS011;2313;48.552;9.370;2022-07-29T02:44:40;6.63;;;3.80;;
4601;SDS011;2313;48.552;9.370;2022-07-29T02:47:09;3.73;;;3.00;;
4601;SDS011;2313;48.552;9.370;2022-07-29T02:50:00;8.07;;;3.30;;
4601;SDS011;2313;48.552;9.370;2022-07-29T02:55:35;4.40;;;3.90;;
4601;SDS011;2313;48.552;9.370;2022-07-29T02:58:12;3.70;;;3.40;;
4601;SDS011;2313;48.552;9.370;2022-07-29T03:00:53;6.10;;;4.30;;
4601;SDS011;2313;48.552;9.370;2022-07-29T03:03:22;4.60;;;3.60;;
4601;SDS011;2313;48.552;9.370;2022-07-29T03:05:56;4.17;;;3.77;;
4601;SDS011;2313;48.552;9.370;2022-07-29T03:08:24;3.90;;;3.60;;
4601;SDS011;2313;48.552;9.370;2022-07-29T03:10:51;3.57;;;3.27;;
4601;SDS011;2313;48.552;9.370;2022-07-29T03:13:18;4.90;;;3.50;;
4601;SDS011;2313;48.552;9.370;2022-07-29T03:15:44;3.30;;;3.07;;
4601;SDS011;2313;48.552;9.370;2022-07-29T03:18:10;6.27;;;3.47;;
4601;SDS011;2313;48.552;9.370;2022-07-29T03:20:37;3.37;;;3.07;;
4601;SDS011;2313;48.552;9.370;2022-07-29T03:23:03;6.67;;;3.43;;
4601;SDS011;2313;48.552;9.370;2022-07-29T03:25:29;3.93;;;3.13;;
4601;SDS011;2313;48.552;9.370;2022-07-29T03:27:55;3.70;;;3.40;;
4601;SDS011;2313;48.552;9.370;2022-07-29T03:30:21;4.93;;;3.20;;
4601;SDS011;2313;48.552;9.370;2022-07-29T03:32:48;2.90;;;2.70;;
4601;SDS011;2313;48.552;9.370;2022-07-29T03:35:15;3.57;;;3.27;;
4601;SDS011;2313;48.552;9.370;2022-07-29T03:37:44;3.90;;;3.60;;
4601;SDS011;2313;48.552;9.370;2022-07-29T03:40:10;3.43;;;3.13;;
4601;SDS011;2313;48.552;9.370;2022-07-29T03:42:39;3.70;;;3.40;;
4601;SDS011;2313;48.552;9.370;2022-07-29T03:45:07;3.83;;;3.20;;
4601;SDS011;2313;48.552;9.370;2022-07-29T03:47:36;3.50;;;3.20;;
4601;SDS011;2313;48.552;9.370;2022-07-29T03:50:08;3.30;;;3.00;;
4601;SDS011;2313;48.552;9.370;2022-07-29T03:52:36;3.10;;;2.90;;
4601;SDS011;2313;48.552;9.370;2022-07-29T03:55:02;7.57;;;3.30;;
4601;SDS011;2313;48.552;9.370;2022-07-29T03:57:28;3.90;;;3.40;;
4601;SDS011;2313;48.552;9.370;2022-07-29T03:59:56;4.70;;;3.20;;
4601;SDS011;2313;48.552;9.370;2022-07-29T04:02:22;5.07;;;3.20;;
4601;SDS011;2313;48.552;9.370;2022-07-29T04:04:49;3.30;;;3.00;;
4601;SDS011;2313;48.552;9.370;2022-07-29T04:07:15;3.40;;;2.97;;
4601;SDS011;2313;48.552;9.370;2022-07-29T04:09:41;3.37;;;3.07;;
4601;SDS011;2313;48.552;9.370;2022-07-29T04:12:07;2.80;;;2.60;;
4601;SDS011;2313;48.552;9.370;2022-07-29T04:14:33;3.80;;;2.83;;
4601;SDS011;2313;48.552;9.370;2022-07-29T04:17:00;4.37;;;3.60;;
4601;SDS011;2313;48.552;9.370;2022-07-29T04:19:27;3.23;;;3.00;;
4601;SDS011;2313;48.552;9.370;2022-07-29T04:21:52;6.20;;;3.27;;
4601;SDS011;2313;48.552;9.370;2022-07-29T04:24:18;4.10;;;3.70;;
4601;SDS011;2313;48.552;9.370;2022-07-29T04:26:45;4.30;;;3.90;;
4601;SDS011;2313;48.552;9.370;2022-07-29T04:29:11;6.70;;;4.13;;
4601;SDS011;2313;48.552;9.370;2022-07-29T04:31:39;4.27;;;3.90;;
4601;SDS011;2313;48.552;9.370;2022-07-29T04:34:08;5.97;;;4.97;;
4601;SDS011;2313;48.552;9.370;2022-07-29T04:36:34;4.40;;;4.00;;
4601;SDS011;2313;48.552;9.370;2022-07-29T04:39:00;6.90;;;4.90;;
4601;SDS011;2313;48.552;9.370;2022-07-29T04:41:26;8.20;;;4.70;;
4601;SDS011;2313;48.552;9.370;2022-07-29T04:43:52;5.93;;;3.97;;
4601;SDS011;2313;48.552;9.370;2022-07-29T04:46:18;8.80;;;5.20;;
4601;SDS011;2313;48.552;9.370;2022-07-29T04:48:47;5.10;;;4.70;;
4601;SDS011;2313;48.552;9.370;2022-07-29T04:51:16;5.23;;;4.30;;
4601;SDS011;2313;48.552;9.370;2022-07-29T04:53:41;5.30;;;4.83;;
4601;SDS011;2313;48.552;9.370;2022-07-29T04:56:07;6.27;;;4.37;;
4601;SDS011;2313;48.552;9.370;2022-07-29T04:58:36;6.90;;;4.87;;
4601;SDS011;2313;48.552;9.370;2022-07-29T05:01:02;8.67;;;4.30;;
4601;SDS011;2313;48.552;9.370;2022-07-29T05:03:28;5.83;;;4.40;;
4601;SDS011;2313;48.552;9.370;2022-07-29T05:05:54;5.33;;;4.83;;
4601;SDS011;2313;48.552;9.370;2022-07-29T05:08:19;5.57;;;4.60;;
4601;SDS011;2313;48.552;9.370;2022-07-29T05:10:45;5.20;;;4.60;;
4601;SDS011;2313;48.552;9.370;2022-07-29T05:13:11;5.50;;;5.00;;
4601;SDS011;2313;48.552;9.370;2022-07-29T05:15:37;5.40;;;4.90;;
4601;SDS011;2313;48.552;9.370;2022-07-29T05:18:03;7.00;;;5.30;;
4601;SDS011;2313;48.552;9.370;2022-07-29T05:20:30;7.13;;;5.00;;
4601;SDS011;2313;48.552;9.370;2022-07-29T05:22:56;7.07;;;5.40;;
4601;SDS011;2313;48.552;9.370;2022-07-29T05:25:22;14.00;;;5.40;;
4601;SDS011;2313;48.552;9.370;2022-07-29T05:27:49;8.47;;;5.50;;
4601;SDS011;2313;48.552;9.370;2022-07-29T05:30:14;5.60;;;5.07;;
4601;SDS011;2313;48.552;9.370;2022-07-29T05:32:40;5.40;;;4.90;;
4601;SDS011;2313;48.552;9.370;2022-07-29T05:35:06;6.37;;;5.77;;
4601;SDS011;2313;48.552;9.370;2022-07-29T05:37:32;7.53;;;4.93;;
4601;SDS011;2313;48.552;9.370;2022-07-29T05:39:58;7.00;;;4.60;;
4601;SDS011;2313;48.552;9.370;2022-07-29T05:42:24;4.77;;;4.37;;
4601;SDS011;2313;48.552;9.370;2022-07-29T05:44:50;6.80;;;4.33;;
4601;SDS011;2313;48.552;9.370;2022-07-29T05:47:17;9.33;;;4.00;;
4601;SDS011;2313;48.552;9.370;2022-07-29T05:49:42;3.47;;;3.17;;
4601;SDS011;2313;48.552;9.370;2022-07-29T05:52:08;5.50;;;3.00;;
4601;SDS011;2313;48.552;9.370;2022-07-29T05:54:34;3.77;;;3.47;;
4601;SDS011;2313;48.552;9.370;2022-07-29T05:57:00;11.40;;;5.60;;
4601;SDS011;2313;48.552;9.370;2022-07-29T05:59:25;9.10;;;4.80;;
4601;SDS011;2313;48.552;9.370;2022-07-29T06:01:51;6.27;;;4.10;;
4601;SDS011;2313;48.552;9.370;2022-07-29T06:04:17;6.30;;;3.83;;
4601;SDS011;2313;48.552;9.370;2022-07-29T06:06:43;5.20;;;3.93;;
4601;SDS011;2313;48.552;9.370;2022-07-29T06:09:08;4.40;;;2.57;;
4601;SDS011;2313;48.552;9.370;2022-07-29T06:11:34;3.00;;;2.70;;
4601;SDS011;2313;48.552;9.370;2022-07-29T06:13:59;4.50;;;2.60;;
4601;SDS011;2313;48.552;9.370;2022-07-29T06:16:25;3.53;;;2.70;;
4601;SDS011;2313;48.552;9.370;2022-07-29T06:18:51;6.07;;;3.10;;
4601;SDS011;2313;48.552;9.370;2022-07-29T06:21:17;5.50;;;3.00;;
4601;SDS011;2313;48.552;9.370;2022-07-29T06:23:44;2.90;;;2.60;;
4601;SDS011;2313;48.552;9.370;2022-07-29T06:26:10;9.47;;;3.47;;
4601;SDS011;2313;48.552;9.370;2022-07-29T06:28:36;3.87;;;3.10;;
4601;SDS011;2313;48.552;9.370;2022-07-29T06:31:01;6.20;;;2.90;;
4601;SDS011;2313;48.552;9.370;2022-07-29T06:33:27;4.53;;;3.43;;
4601;SDS011;2313;48.552;9.370;2022-07-29T06:35:53;3.40;;;3.10;;
4601;SDS011;2313;48.552;9.370;2022-07-29T06:38:19;5.23;;;3.27;;
4601;SDS011;2313;48.552;9.370;2022-07-29T06:40:46;3.40;;;3.13;;
4601;SDS011;2313;48.552;9.370;2022-07-29T06:43:31;8.73;;;3.43;;
4601;SDS011;2313;48.552;9.370;2022-07-29T06:46:02;4.70;;;4.00;;
4601;SDS011;2313;48.552;9.370;2022-07-29T06:48:30;5.47;;;3.33;;
4601;SDS011;2313;48.552;9.370;2022-07-29T06:50:56;4.43;;;3.80;;
4601;SDS011;2313;48.552;9.370;2022-07-29T06:53:22;4.50;;;3.50;;
4601;SDS011;2313;48.552;9.370;2022-07-29T06:55:48;4.47;;;3.60;;
4601;SDS011;2313;48.552;9.370;2022-07-29T06:58:14;5.90;;;4.43;;
4601;SDS011;2313;48.552;9.370;2022-07-29T07:00:42;4.10;;;3.70;;
4601;SDS011;2313;48.552;9.370;2022-07-29T07:03:09;5.30;;;4.53;;
4601;SDS011;2313;48.552;9.370;2022-07-29T07:05:35;2.90;;;2.70;;
4601;SDS011;2313;48.552;9.370;2022-07-29T07:08:01;5.53;;;3.80;;
4601;SDS011;2313;48.552;9.370;2022-07-29T07:10:26;8.47;;;3.97;;
4601;SDS011;2313;48.552;9.370;2022-07-29T07:12:52;6.67;;;4.10;;
4601;SDS011;2313;48.552;9.370;2022-07-29T07:15:18;4.43;;;3.50;;
4601;SDS011;2313;48.552;9.370;2022-07-29T07:17:47;4.53;;;4.00;;
4601;SDS011;2313;48.552;9.370;2022-07-29T07:20:14;4.63;;;4.23;;
4601;SDS011;2313;48.552;9.370;2022-07-29T07:22:40;12.77;;;4.03;;
4601;SDS011;2313;48.552;9.370;2022-07-29T07:25:05;3.83;;;3.50;;
4601;SDS011;2313;48.552;9.370;2022-07-29T07:27:31;4.30;;;3.17;;
4601;SDS011;2313;48.552;9.370;2022-07-29T07:29:57;5.37;;;3.50;;
4601;SDS011;2313;48.552;9.370;2022-07-29T07:32:23;5.20;;;3.20;;
4601;SDS011;2313;48.552;9.370;2022-07-29T07:34:48;5.17;;;3.00;;
4601;SDS011;2313;48.552;9.370;2022-07-29T07:37:14;14.33;;;3.60;;
4601;SDS011;2313;48.552;9.370;2022-07-29T07:39:40;6.90;;;3.37;;
4601;SDS011;2313;48.552;9.370;2022-07-29T07:42:06;8.57;;;2.93;;
4601;SDS011;2313;48.552;9.370;2022-07-29T07:44:31;4.90;;;3.20;;
4601;SDS011;2313;48.552;9.370;2022-07-29T07:46:57;3.00;;;2.80;;
4601;SDS011;2313;48.552;9.370;2022-07-29T07:49:23;6.80;;;3.60;;
4601;SDS011;2313;48.552;9.370;2022-07-29T07:51:49;5.70;;;3.90;;
4601;SDS011;2313;48.552;9.370;2022-07-29T07:54:14;3.30;;;2.97;;
4601;SDS011;2313;48.552;9.370;2022-07-29T07:56:40;4.73;;;3.70;;
4601;SDS011;2313;48.552;9.370;2022-07-29T07:59:06;5.57;;;3.03;;
4601;SDS011;2313;48.552;9.370;2022-07-29T08:01:31;11.00;;;3.20;;
4601;SDS011;2313;48.552;9.370;2022-07-29T08:03:57;7.70;;;3.93;;
4601;SDS011;2313;48.552;9.370;2022-07-29T08:06:23;6.60;;;3.40;;
4601;SDS011;2313;48.552;9.370;2022-07-29T08:08:50;6.60;;;3.77;;
4601;SDS011;2313;48.552;9.370;2022-07-29T08:11:15;7.20;;;3.33;;
4601;SDS011;2313;48.552;9.370;2022-07-29T08:13:41;5.97;;;3.10;;
4601;SDS011;2313;48.552;9.370;2022-07-29T08:16:08;4.63;;;4.00;;
4601;SDS011;2313;48.552;9.370;2022-07-29T08:18:37;5.40;;;3.80;;
4601;SDS011;2313;48.552;9.370;2022-07-29T08:21:04;6.47;;;3.60;;
4601;SDS011;2313;48.552;9.370;2022-07-29T08:23:30;10.53;;;4.00;;
4601;SDS011;2313;48.552;9.370;2022-07-29T08:26:03;8.50;;;3.70;;
4601;SDS011;2313;48.552;9.370;2022-07-29T08:28:36;7.33;;;3.90;;
4601;SDS011;2313;48.552;9.370;2022-07-29T08:31:02;7.43;;;3.80;;
4601;SDS011;2313;48.552;9.370;2022-07-29T08:33:28;7.13;;;4.20;;
4601;SDS011;2313;48.552;9.370;2022-07-29T08:35:53;6.30;;;3.47;;
4601;SDS011;2313;48.552;9.370;2022-07-29T08:38:19;5.10;;;3.80;;
4601;SDS011;2313;48.552;9.370;2022-07-29T08:40:45;4.30;;;3.90;;
4601;SDS011;2313;48.552;9.370;2022-07-29T08:43:11;8.77;;;3.93;;
4601;SDS011;2313;48.552;9.370;2022-07-29T08:45:45;5.57;;;3.90;;
4601;SDS011;2313;48.552;9.370;2022-07-29T08:48:12;10.37;;;4.10;;
4601;SDS011;2313;48.552;9.370;2022-07-29T08:50:39;9.00;;;4.00;;
4601;SDS011;2313;48.552;9.370;2022-07-29T08:53:15;7.63;;;3.80;;
4601;SDS011;2313;48.552;9.370;2022-07-29T08:55:43;4.23;;;3.40;;
4601;SDS011;2313;48.552;9.370;2022-07-29T08:58:11;3.80;;;3.50;;
4601;SDS011;2313;48.552;9.370;2022-07-29T09:00:41;9.33;;;3.70;;
4601;SDS011;2313;48.552;9.370;2022-07-29T09:03:08;6.60;;;4.37;;
4601;SDS011;2313;48.552;9.370;2022-07-29T09:05:37;5.73;;;3.80;;
4601;SDS011;2313;48.552;9.370;2022-07-29T09:08:06;8.43;;;3.83;;
4601;SDS011;2313;48.552;9.370;2022-07-29T09:10:34;8.63;;;4.67;;
4601;SDS011;2313;48.552;9.370;2022-07-29T09:13:00;5.40;;;4.07;;
4601;SDS011;2313;48.552;9.370;2022-07-29T09:15:26;7.33;;;4.47;;
4601;SDS011;2313;48.552;9.370;2022-07-29T09:17:51;5.80;;;4.10;;
4601;SDS011;2313;48.552;9.370;2022-07-29T09:20:18;14.10;;;4.37;;
4601;SDS011;2313;48.552;9.370;2022-07-29T09:22:47;5.60;;;4.70;;
4601;SDS011;2313;48.552;9.370;2022-07-29T09:25:15;11.43;;;4.10;;
4601;SDS011;2313;48.552;9.370;2022-07-29T09:28:04;7.53;;;4.40;;
4601;SDS011;2313;48.552;9.370;2022-07-29T09:30:32;4.90;;;3.80;;
4601;SDS011;2313;48.552;9.370;2022-07-29T09:32:58;7.20;;;4.17;;
4601;SDS011;2313;48.552;9.370;2022-07-29T09:35:27;4.70;;;4.30;;
4601;SDS011;2313;48.552;9.370;2022-07-29T09:37:55;7.17;;;4.37;;
4601;SDS011;2313;48.552;9.370;2022-07-29T09:40:25;7.70;;;3.87;;
4601;SDS011;2313;48.552;9.370;2022-07-29T09:42:52;5.17;;;3.47;;
4601;SDS011;2313;48.552;9.370;2022-07-29T09:45:32;5.87;;;3.70;;
4601;SDS011;2313;48.552;9.370;2022-07-29T09:47:59;5.70;;;4.23;;
4601;SDS011;2313;48.552;9.370;2022-07-29T09:50:38;16.87;;;4.17;;
4601;SDS011;2313;48.552;9.370;2022-07-29T09:53:05;9.93;;;4.13;;
4601;SDS011;2313;48.552;9.370;2022-07-29T09:55:32;6.40;;;4.00;;
4601;SDS011;2313;48.552;9.370;2022-07-29T10:00:43;6.73;;;4.43;;
4601;SDS011;2313;48.552;9.370;2022-07-29T10:03:09;8.30;;;4.67;;
4601;SDS011;2313;48.552;9.370;2022-07-29T10:05:34;7.30;;;3.90;;
4601;SDS011;2313;48.552;9.370;2022-07-29T10:08:00;4.50;;;3.37;;
4601;SDS011;2313;48.552;9.370;2022-07-29T10:10:33;4.77;;;3.90;;
4601;SDS011;2313;48.552;9.370;2022-07-29T10:13:04;5.83;;;3.73;;
4601;SDS011;2313;48.552;9.370;2022-07-29T10:15:32;7.63;;;4.03;;
4601;SDS011;2313;48.552;9.370;2022-07-29T10:18:05;6.27;;;4.00;;
4601;SDS011;2313;48.552;9.370;2022-07-29T10:20:32;4.17;;;3.87;;
4601;SDS011;2313;48.552;9.370;2022-07-29T10:22:59;9.53;;;4.10;;
4601;SDS011;2313;48.552;9.370;2022-07-29T10:25:25;7.27;;;3.90;;
4601;SDS011;2313;48.552;9.370;2022-07-29T10:27:51;4.43;;;4.03;;
4601;SDS011;2313;48.552;9.370;2022-07-29T10:30:18;6.03;;;4.30;;
4601;SDS011;2313;48.552;9.370;2022-07-29T10:46:23;11.27;;;4.47;;
4601;SDS011;2313;48.552;9.370;2022-07-29T10:51:52;11.40;;;4.33;;
4601;SDS011;2313;48.552;9.370;2022-07-29T11:05:16;8.17;;;3.50;;
4601;SDS011;2313;48.552;9.370;2022-07-29T11:10:37;8.03;;;3.73;;
4601;SDS011;2313;48.552;9.370;2022-07-29T11:13:03;3.70;;;3.07;;
4601;SDS011;2313;48.552;9.370;2022-07-29T11:15:29;4.13;;;3.50;;
4601;SDS011;2313;48.552;9.370;2022-07-29T11:18:22;4.10;;;3.70;;
4601;SDS011;2313;48.552;9.370;2022-07-29T11:20:49;5.33;;;4.13;;
4601;SDS011;2313;48.552;9.370;2022-07-29T11:29:06;4.97;;;3.70;;
4601;SDS011;2313;48.552;9.370;2022-07-29T11:31:48;6.10;;;3.97;;
4601;SDS011;2313;48.552;9.370;2022-07-29T11:34:25;4.90;;;4.10;;
4601;SDS011;2313;48.552;9.370;2022-07-29T11:39:37;3.90;;;3.57;;
4601;SDS011;2313;48.552;9.370;2022-07-29T11:44:54;8.10;;;3.60;;
4601;SDS011;2313;48.552;9.370;2022-07-29T11:47:24;8.23;;;3.83;;
4601;SDS011;2313;48.552;9.370;2022-07-29T11:49:50;5.50;;;3.80;;
4601;SDS011;2313;48.552;9.370;2022-07-29T11:52:17;6.33;;;3.53;;
4601;SDS011;2313;48.552;9.370;2022-07-29T11:54:43;5.73;;;3.60;;
4601;SDS011;2313;48.552;9.370;2022-07-29T11:57:10;6.63;;;3.77;;
4601;SDS011;2313;48.552;9.370;2022-07-29T11:59:39;6.00;;;3.70;;
4601;SDS011;2313;48.552;9.370;2022-07-29T12:02:07;5.40;;;3.30;;
4601;SDS011;2313;48.552;9.370;2022-07-29T12:04:34;5.63;;;2.90;;
4601;SDS011;2313;48.552;9.370;2022-07-29T12:07:13;4.70;;;2.60;;
4601;SDS011;2313;48.552;9.370;2022-07-29T12:09:38;2.90;;;2.57;;
4601;SDS011;2313;48.552;9.370;2022-07-29T12:12:04;3.33;;;2.03;;
4601;SDS011;2313;48.552;9.370;2022-07-29T12:14:31;2.23;;;1.60;;
4601;SDS011;2313;48.552;9.370;2022-07-29T12:16:58;1.57;;;1.43;;
4601;SDS011;2313;48.552;9.370;2022-07-29T12:19:25;2.23;;;2.00;;
4601;SDS011;2313;48.552;9.370;2022-07-29T12:21:53;2.60;;;1.93;;
4601;SDS011;2313;48.552;9.370;2022-07-29T12:24:20;3.50;;;2.40;;
4601;SDS011;2313;48.552;9.370;2022-07-29T12:26:53;1.93;;;1.80;;
4601;SDS011;2313;48.552;9.370;2022-07-29T12:29:21;3.57;;;1.93;;
4601;SDS011;2313;48.552;9.370;2022-07-29T12:31:51;2.23;;;2.10;;
4601;SDS011;2313;48.552;9.370;2022-07-29T12:34:19;3.13;;;2.20;;
4601;SDS011;2313;48.552;9.370;2022-07-29T12:36:47;3.40;;;2.20;;
4601;SDS011;2313;48.552;9.370;2022-07-29T12:39:15;3.80;;;2.63;;
4601;SDS011;2313;48.552;9.370;2022-07-29T12:41:42;2.50;;;2.30;;
4601;SDS011;2313;48.552;9.370;2022-07-29T12:44:08;2.87;;;2.67;;
4601;SDS011;2313;48.552;9.370;2022-07-29T12:46:34;6.00;;;3.00;;
4601;SDS011;2313;48.552;9.370;2022-07-29T12:48:59;2.60;;;2.40;;
4601;SDS011;2313;48.552;9.370;2022-07-29T12:51:29;4.03;;;2.47;;
4601;SDS011;2313;48.552;9.370;2022-07-29T12:54:09;5.13;;;2.60;;
4601;SDS011;2313;48.552;9.370;2022-07-29T12:56:40;3.67;;;3.10;;
4601;SDS011;2313;48.552;9.370;2022-07-29T12:59:11;5.73;;;3.60;;
4601;SDS011;2313;48.552;9.370;2022-07-29T13:01:41;4.03;;;3.47;;
4601;SDS011;2313;48.552;9.370;2022-07-29T13:04:07;3.67;;;3.37;;
4601;SDS011;2313;48.552;9.370;2022-07-29T13:06:38;7.57;;;3.90;;
4601;SDS011;2313;48.552;9.370;2022-07-29T13:09:09;6.23;;;4.10;;
4601;SDS011;2313;48.552;9.370;2022-07-29T13:11:38;10.33;;;4.13;;
4601;SDS011;2313;48.552;9.370;2022-07-29T13:14:07;9.67;;;3.50;;
4601;SDS011;2313;48.552;9.370;2022-07-29T13:16:34;4.37;;;3.97;;
4601;SDS011;2313;48.552;9.370;2022-07-29T13:19:08;4.80;;;4.00;;
4601;SDS011;2313;48.552;9.370;2022-07-29T13:21:35;8.63;;;4.83;;
4601;SDS011;2313;48.552;9.370;2022-07-29T13:24:02;5.90;;;5.00;;
4601;SDS011;2313;48.552;9.370;2022-07-29T13:26:28;6.03;;;4.50;;
4601;SDS011;2313;48.552;9.370;2022-07-29T13:28:54;6.20;;;4.40;;
4601;SDS011;2313;48.552;9.370;2022-07-29T13:31:20;7.10;;;4.97;;
4601;SDS011;2313;48.552;9.370;2022-07-29T13:33:47;6.50;;;5.20;;
4601;SDS011;2313;48.552;9.370;2022-07-29T13:36:12;5.43;;;4.93;;
4601;SDS011;2313;48.552;9.370;2022-07-29T13:38:38;5.10;;;4.70;;
4601;SDS011;2313;48.552;9.370;2022-07-29T13:41:04;7.80;;;5.10;;
4601;SDS011;2313;48.552;9.370;2022-07-29T13:43:30;6.50;;;4.67;;
4601;SDS011;2313;48.552;9.370;2022-07-29T13:45:55;5.60;;;4.63;;
4601;SDS011;2313;48.552;9.370;2022-07-29T13:48:21;6.33;;;5.17;;
4601;SDS011;2313;48.552;9.370;2022-07-29T13:50:47;5.80;;;5.30;;
4601;SDS011;2313;48.552;9.370;2022-07-29T13:53:13;5.50;;;4.97;;
4601;SDS011;2313;48.552;9.370;2022-07-29T13:55:39;5.20;;;4.60;;
4601;SDS011;2313;48.552;9.370;2022-07-29T13:58:04;5.43;;;4.97;;
4601;SDS011;2313;48.552;9.370;2022-07-29T14:00:31;21.60;;;8.60;;
4601;SDS011;2313;48.552;9.370;2022-07-29T14:02:57;16.57;;;7.43;;
4601;SDS011;2313;48.552;9.370;2022-07-29T14:05:22;9.40;;;6.80;;
4601;SDS011;2313;48.552;9.370;2022-07-29T14:07:48;8.10;;;5.83;;
4601;SDS011;2313;48.552;9.370;2022-07-29T14:10:14;13.33;;;8.50;;
4601;SDS011;2313;48.552;9.370;2022-07-29T14:12:39;12.00;;;8.50;;
4601;SDS011;2313;48.552;9.370;2022-07-29T14:15:07;16.97;;;7.63;;
4601;SDS011;2313;48.552;9.370;2022-07-29T14:17:33;8.83;;;6.50;;
4601;SDS011;2313;48.552;9.370;2022-07-29T14:19:59;9.80;;;7.30;;
4601;SDS011;2313;48.552;9.370;2022-07-29T14:22:25;11.40;;;7.70;;
4601;SDS011;2313;48.552;9.370;2022-07-29T14:24:50;6.73;;;6.03;;
4601;SDS011;2313;48.552;9.370;2022-07-29T14:27:17;7.67;;;6.80;;
4601;SDS011;2313;48.552;9.370;2022-07-29T14:29:43;8.20;;;6.50;;
4601;SDS011;2313;48.552;9.370;2022-07-29T14:32:09;7.47;;;6.70;;
4601;SDS011;2313;48.552;9.370;2022-07-29T14:34:35;9.97;;;6.87;;
4601;SDS011;2313;48.552;9.370;2022-07-29T14:37:02;11.00;;;7.30;;
4601;SDS011;2313;48.552;9.370;2022-07-29T14:39:30;8.47;;;7.43;;
4601;SDS011;2313;48.552;9.370;2022-07-29T14:41:56;8.47;;;7.50;;
4601;SDS011;2313;48.552;9.370;2022-07-29T14:44:22;8.90;;;7.97;;
4601;SDS011;2313;48.552;9.370;2022-07-29T14:46:48;7.60;;;6.80;;
4601;SDS011;2313;48.552;9.370;2022-07-29T14:49:14;8.57;;;7.70;;
4601;SDS011;2313;48.552;9.370;2022-07-29T14:51:40;6.83;;;6.23;;
4601;SDS011;2313;48.552;9.370;2022-07-29T14:54:05;7.40;;;6.67;;
4601;SDS011;2313;48.552;9.370;2022-07-29T14:56:31;9.23;;;7.13;;
4601;SDS011;2313;48.552;9.370;2022-07-29T14:59:00;6.83;;;6.20;;
4601;SDS011;2313;48.552;9.370;2022-07-29T15:01:25;7.90;;;5.90;;
4601;SDS011;2313;48.552;9.370;2022-07-29T15:03:51;6.23;;;5.63;;
4601;SDS011;2313;48.552;9.370;2022-07-29T15:06:17;6.20;;;5.50;;
4601;SDS011;2313;48.552;9.370;2022-07-29T15:08:42;6.30;;;5.57;;
4601;SDS011;2313;48.552;9.370;2022-07-29T15:11:08;6.07;;;5.57;;
4601;SDS011;2313;48.552;9.370;2022-07-29T15:13:34;5.40;;;4.90;;
4601;SDS011;2313;48.552;9.370;2022-07-29T15:16:00;6.20;;;5.60;;
4601;SDS011;2313;48.552;9.370;2022-07-29T15:18:25;7.17;;;5.30;;
4601;SDS011;2313;48.552;9.370;2022-07-29T15:20:51;6.13;;;5.63;;
4601;SDS011;2313;48.552;9.370;2022-07-29T15:23:17;6.30;;;5.70;;
4601;SDS011;2313;48.552;9.370;2022-07-29T15:25:42;8.47;;;5.30;;
4601;SDS011;2313;48.552;9.370;2022-07-29T15:28:08;9.43;;;5.93;;
4601;SDS011;2313;48.552;9.370;2022-07-29T15:30:34;7.33;;;5.67;;
4601;SDS011;2313;48.552;9.370;2022-07-29T15:33:05;8.40;;;5.60;;
4601;SDS011;2313;48.552;9.370;2022-07-29T15:35:33;6.40;;;5.90;;
4601;SDS011;2313;48.552;9.370;2022-07-29T15:37:58;7.10;;;6.37;;
4601;SDS011;2313;48.552;9.370;2022-07-29T15:40:24;5.90;;;5.30;;
4601;SDS011;2313;48.552;9.370;2022-07-29T15:42:50;8.70;;;5.60;;
4601;SDS011;2313;48.552;9.370;2022-07-29T15:45:15;6.83;;;6.20;;
4601;SDS011;2313;48.552;9.370;2022-07-29T15:47:41;6.03;;;5.43;;
4601;SDS011;2313;48.552;9.370;2022-07-29T15:50:07;5.93;;;5.43;;
4601;SDS011;2313;48.552;9.370;2022-07-29T15:52:38;6.37;;;5.77;;
4601;SDS011;2313;48.552;9.370;2022-07-29T15:55:04;7.87;;;5.77;;
4601;SDS011;2313;48.552;9.370;2022-07-29T15:57:30;7.17;;;5.50;;
4601;SDS011;2313;48.552;9.370;2022-07-29T15:59:55;5.70;;;5.20;;
4601;SDS011;2313;48.552;9.370;2022-07-29T16:02:21;5.63;;;4.30;;
4601;SDS011;2313;48.552;9.370;2022-07-29T16:04:47;5.33;;;4.63;;
4601;SDS011;2313;48.552;9.370;2022-07-29T16:07:12;6.97;;;5.33;;
4601;SDS011;2313;48.552;9.370;2022-07-29T16:09:38;4.73;;;4.33;;
4601;SDS011;2313;48.552;9.370;2022-07-29T16:12:04;5.43;;;4.63;;
4601;SDS011;2313;48.552;9.370;2022-07-29T16:14:30;6.47;;;4.40;;
4601;SDS011;2313;48.552;9.370;2022-07-29T16:16:56;7.00;;;5.00;;
4601;SDS011;2313;48.552;9.370;2022-07-29T16:19:21;8.80;;;4.47;;
4601;SDS011;2313;48.552;9.370;2022-07-29T16:21:47;6.27;;;5.10;;
4601;SDS011;2313;48.552;9.370;2022-07-29T16:24:12;10.07;;;5.67;;